sensor_id;sensor_type;location;lat;lon;timestamp;P1;durP1;ratioP1;P2;durP2;ratioP2
50932;SDS011;36921;49.006;9.292;2024-03-22T00:01:42;12.27;;;6.38;;
50932;SDS011;36921;49.006;9.292;2024-03-22T00:04:08;15.05;;;6.95;;
50932;SDS011;36921;49.006;9.292;2024-03-22T00:06:33;13.13;;;7.22;;
50932;SDS011;36921;49.006;9.292;2024-03-22T00:08:59;10.98;;;6.18;;
50932;SDS011;36921;49.006;9.292;2024-03-22T00:11:24;10.18;;;5.63;;
50932;SDS011;36921;49.006;9.292;2024-03-22T00:13:50;10.63;;;5.45;;
50932;SDS011;36921;49.006;9.292;2024-03-22T00:16:16;9.55;;;5.50;;
50932;SDS011;36921;49.006;9.292;2024-03-22T00:18:41;11.70;;;5.78;;
50932;SDS011;36921;49.006;9.292;2024-03-22T00:21:06;8.98;;;4.88;;
50932;SDS011;36921;49.006;9.292;2024-03-22T00:23:32;8.90;;;4.82;;
50932;SDS011;36921;49.006;9.292;2024-03-22T00:25:57;9.95;;;4.93;;
50932;SDS011;36921;49.006;9.292;2024-03-22T00:28:22;14.82;;;5.65;;
50932;SDS011;36921;49.006;9.292;2024-03-22T00:30:48;8.63;;;5.30;;
50932;SDS011;36921;49.006;9.292;2024-03-22T00:33:13;10.52;;;5.82;;
50932;SDS011;36921;49.006;9.292;2024-03-22T00:35:38;10.13;;;6.18;;
50932;SDS011;36921;49.006;9.292;2024-03-22T00:38:03;15.35;;;6.65;;
50932;SDS011;36921;49.006;9.292;2024-03-22T00:40:29;10.18;;;5.57;;
50932;SDS011;36921;49.006;9.292;2024-03-22T00:42:54;12.60;;;5.75;;
50932;SDS011;36921;49.006;9.292;2024-03-22T00:45:19;11.13;;;5.53;;
50932;SDS011;36921;49.006;9.292;2024-03-22T00:47:45;11.43;;;5.20;;
50932;SDS011;36921;49.006;9.292;2024-03-22T00:50:10;9.27;;;5.72;;
50932;SDS011;36921;49.006;9.292;2024-03-22T00:52:35;10.75;;;5.55;;
50932;SDS011;36921;49.006;9.292;2024-03-22T00:55:01;7.72;;;5.13;;
50932;SDS011;36921;49.006;9.292;2024-03-22T00:57:26;10.90;;;4.95;;
50932;SDS011;36921;49.006;9.292;2024-03-22T00:59:51;9.30;;;4.70;;
50932;SDS011;36921;49.006;9.292;2024-03-22T01:02:17;10.30;;;4.80;;
50932;SDS011;36921;49.006;9.292;2024-03-22T01:04:42;10.38;;;5.10;;
50932;SDS011;36921;49.006;9.292;2024-03-22T01:07:07;9.02;;;4.25;;
50932;SDS011;36921;49.006;9.292;2024-03-22T01:09:32;9.25;;;4.22;;
50932;SDS011;36921;49.006;9.292;2024-03-22T01:11:58;14.50;;;5.38;;
50932;SDS011;36921;49.006;9.292;2024-03-22T01:14:23;9.07;;;5.40;;
50932;SDS011;36921;49.006;9.292;2024-03-22T01:16:48;9.88;;;5.40;;
50932;SDS011;36921;49.006;9.292;2024-03-22T01:19:14;10.02;;;5.80;;
50932;SDS011;36921;49.006;9.292;2024-03-22T01:21:39;10.57;;;5.95;;
50932;SDS011;36921;49.006;9.292;2024-03-22T01:24:04;12.52;;;6.80;;
50932;SDS011;36921;49.006;9.292;2024-03-22T01:26:29;13.30;;;6.65;;
50932;SDS011;36921;49.006;9.292;2024-03-22T01:28:55;12.05;;;6.50;;
50932;SDS011;36921;49.006;9.292;2024-03-22T01:31:20;11.32;;;5.88;;
50932;SDS011;36921;49.006;9.292;2024-03-22T01:33:45;12.68;;;6.15;;
50932;SDS011;36921;49.006;9.292;2024-03-22T01:36:11;15.23;;;6.43;;
50932;SDS011;36921;49.006;9.292;2024-03-22T01:38:36;13.52;;;6.57;;
50932;SDS011;36921;49.006;9.292;2024-03-22T01:41:01;11.80;;;6.88;;
50932;SDS011;36921;49.006;9.292;2024-03-22T01:43:26;12.25;;;6.57;;
50932;SDS011;36921;49.006;9.292;2024-03-22T01:45:52;13.25;;;6.72;;
50932;SDS011;36921;49.006;9.292;2024-03-22T01:48:17;12.63;;;6.88;;
50932;SDS011;36921;49.006;9.292;2024-03-22T01:50:42;12.63;;;6.63;;
50932;SDS011;36921;49.006;9.292;2024-03-22T01:53:08;11.00;;;6.20;;
50932;SDS011;36921;49.006;9.292;2024-03-22T01:55:34;10.43;;;5.93;;
50932;SDS011;36921;49.006;9.292;2024-03-22T01:57:59;12.63;;;6.30;;
50932;SDS011;36921;49.006;9.292;2024-03-22T02:00:24;12.32;;;6.25;;
50932;SDS011;36921;49.006;9.292;2024-03-22T02:02:49;15.82;;;6.32;;
50932;SDS011;36921;49.006;9.292;2024-03-22T02:05:15;14.77;;;6.18;;
50932;SDS011;36921;49.006;9.292;2024-03-22T02:07:44;12.77;;;6.05;;
50932;SDS011;36921;49.006;9.292;2024-03-22T02:10:10;11.05;;;5.70;;
50932;SDS011;36921;49.006;9.292;2024-03-22T02:12:36;12.30;;;6.30;;
50932;SDS011;36921;49.006;9.292;2024-03-22T02:15:02;14.52;;;5.90;;
50932;SDS011;36921;49.006;9.292;2024-03-22T02:17:27;9.63;;;5.78;;
50932;SDS011;36921;49.006;9.292;2024-03-22T02:19:53;13.05;;;5.40;;
50932;SDS011;36921;49.006;9.292;2024-03-22T02:22:18;12.88;;;6.28;;
50932;SDS011;36921;49.006;9.292;2024-03-22T02:24:44;8.98;;;5.30;;
50932;SDS011;36921;49.006;9.292;2024-03-22T02:27:09;11.95;;;5.35;;
50932;SDS011;36921;49.006;9.292;2024-03-22T02:29:34;12.52;;;5.70;;
50932;SDS011;36921;49.006;9.292;2024-03-22T02:31:59;8.40;;;5.05;;
50932;SDS011;36921;49.006;9.292;2024-03-22T02:34:25;8.38;;;4.88;;
50932;SDS011;36921;49.006;9.292;2024-03-22T02:36:50;8.43;;;4.75;;
50932;SDS011;36921;49.006;9.292;2024-03-22T02:39:15;8.38;;;4.63;;
50932;SDS011;36921;49.006;9.292;2024-03-22T02:41:41;8.93;;;4.85;;
50932;SDS011;36921;49.006;9.292;2024-03-22T02:44:06;7.60;;;4.40;;
50932;SDS011;36921;49.006;9.292;2024-03-22T02:46:31;9.88;;;4.70;;
50932;SDS011;36921;49.006;9.292;2024-03-22T02:48:57;9.07;;;4.45;;
50932;SDS011;36921;49.006;9.292;2024-03-22T02:51:22;10.43;;;4.45;;
50932;SDS011;36921;49.006;9.292;2024-03-22T02:53:47;12.30;;;5.20;;
50932;SDS011;36921;49.006;9.292;2024-03-22T02:56:13;9.40;;;5.38;;
50932;SDS011;36921;49.006;9.292;2024-03-22T02:58:38;10.00;;;5.72;;
50932;SDS011;36921;49.006;9.292;2024-03-22T03:01:03;12.50;;;6.10;;
50932;SDS011;36921;49.006;9.292;2024-03-22T03:03:29;13.65;;;5.95;;
50932;SDS011;36921;49.006;9.292;2024-03-22T03:05:54;12.00;;;6.45;;
50932;SDS011;36921;49.006;9.292;2024-03-22T03:08:19;10.63;;;6.93;;
50932;SDS011;36921;49.006;9.292;2024-03-22T03:10:44;12.82;;;7.20;;
50932;SDS011;36921;49.006;9.292;2024-03-22T03:13:10;13.30;;;6.53;;
50932;SDS011;36921;49.006;9.292;2024-03-22T03:15:36;17.02;;;7.05;;
50932;SDS011;36921;49.006;9.292;2024-03-22T03:18:01;12.57;;;6.20;;
50932;SDS011;36921;49.006;9.292;2024-03-22T03:20:26;12.30;;;6.75;;
50932;SDS011;36921;49.006;9.292;2024-03-22T03:22:52;14.93;;;7.25;;
50932;SDS011;36921;49.006;9.292;2024-03-22T03:25:17;12.45;;;6.95;;
50932;SDS011;36921;49.006;9.292;2024-03-22T03:27:42;15.40;;;7.00;;
50932;SDS011;36921;49.006;9.292;2024-03-22T03:30:07;14.07;;;7.07;;
50932;SDS011;36921;49.006;9.292;2024-03-22T03:32:33;12.27;;;6.97;;
50932;SDS011;36921;49.006;9.292;2024-03-22T03:34:58;13.20;;;7.13;;
50932;SDS011;36921;49.006;9.292;2024-03-22T03:37:24;12.13;;;6.43;;
50932;SDS011;36921;49.006;9.292;2024-03-22T03:39:49;16.33;;;7.47;;
50932;SDS011;36921;49.006;9.292;2024-03-22T03:42:14;9.60;;;6.32;;
50932;SDS011;36921;49.006;9.292;2024-03-22T03:44:39;12.55;;;6.53;;
50932;SDS011;36921;49.006;9.292;2024-03-22T03:47:06;10.65;;;6.47;;
50932;SDS011;36921;49.006;9.292;2024-03-22T03:49:32;11.57;;;5.82;;
50932;SDS011;36921;49.006;9.292;2024-03-22T03:51:57;10.15;;;6.07;;
50932;SDS011;36921;49.006;9.292;2024-03-22T03:54:22;9.85;;;6.00;;
50932;SDS011;36921;49.006;9.292;2024-03-22T03:56:48;14.35;;;5.57;;
50932;SDS011;36921;49.006;9.292;2024-03-22T03:59:13;8.85;;;5.13;;
50932;SDS011;36921;49.006;9.292;2024-03-22T04:01:38;11.02;;;5.85;;
50932;SDS011;36921;49.006;9.292;2024-03-22T04:04:03;9.60;;;5.28;;
50932;SDS011;36921;49.006;9.292;2024-03-22T04:06:29;8.63;;;5.22;;
50932;SDS011;36921;49.006;9.292;2024-03-22T04:08:55;10.27;;;5.38;;
50932;SDS011;36921;49.006;9.292;2024-03-22T04:11:20;10.75;;;5.50;;
50932;SDS011;36921;49.006;9.292;2024-03-22T04:13:45;9.00;;;5.20;;
50932;SDS011;36921;49.006;9.292;2024-03-22T04:19:17;9.98;;;5.40;;
50932;SDS011;36921;49.006;9.292;2024-03-22T04:21:43;8.43;;;4.50;;
50932;SDS011;36921;49.006;9.292;2024-03-22T04:24:08;12.25;;;4.65;;
50932;SDS011;36921;49.006;9.292;2024-03-22T04:26:34;10.00;;;5.13;;
50932;SDS011;36921;49.006;9.292;2024-03-22T04:28:59;7.43;;;4.50;;
50932;SDS011;36921;49.006;9.292;2024-03-22T04:31:25;9.35;;;4.85;;
50932;SDS011;36921;49.006;9.292;2024-03-22T04:33:50;8.82;;;4.68;;
50932;SDS011;36921;49.006;9.292;2024-03-22T04:36:15;8.88;;;4.95;;
50932;SDS011;36921;49.006;9.292;2024-03-22T04:38:41;9.68;;;4.68;;
50932;SDS011;36921;49.006;9.292;2024-03-22T04:41:06;10.63;;;4.90;;
50932;SDS011;36921;49.006;9.292;2024-03-22T04:43:32;10.82;;;5.53;;
50932;SDS011;36921;49.006;9.292;2024-03-22T04:45:57;8.18;;;5.18;;
50932;SDS011;36921;49.006;9.292;2024-03-22T04:48:23;9.48;;;5.07;;
50932;SDS011;36921;49.006;9.292;2024-03-22T04:50:52;7.32;;;4.35;;
50932;SDS011;36921;49.006;9.292;2024-03-22T04:53:19;7.13;;;4.78;;
50932;SDS011;36921;49.006;9.292;2024-03-22T04:55:48;12.18;;;5.00;;
50932;SDS011;36921;49.006;9.292;2024-03-22T04:58:15;11.07;;;5.30;;
50932;SDS011;36921;49.006;9.292;2024-03-22T05:03:40;10.75;;;5.85;;
50932;SDS011;36921;49.006;9.292;2024-03-22T05:06:06;9.52;;;5.60;;
50932;SDS011;36921;49.006;9.292;2024-03-22T05:08:32;12.30;;;6.78;;
50932;SDS011;36921;49.006;9.292;2024-03-22T05:10:58;10.38;;;5.60;;
50932;SDS011;36921;49.006;9.292;2024-03-22T05:13:24;10.68;;;6.28;;
50932;SDS011;36921;49.006;9.292;2024-03-22T05:15:49;10.65;;;5.63;;
50932;SDS011;36921;49.006;9.292;2024-03-22T05:18:15;13.30;;;5.60;;
50932;SDS011;36921;49.006;9.292;2024-03-22T05:20:40;10.52;;;6.70;;
50932;SDS011;36921;49.006;9.292;2024-03-22T05:23:06;11.60;;;5.65;;
50932;SDS011;36921;49.006;9.292;2024-03-22T05:25:31;9.88;;;5.97;;
50932;SDS011;36921;49.006;9.292;2024-03-22T05:27:56;10.13;;;5.88;;
50932;SDS011;36921;49.006;9.292;2024-03-22T05:30:22;12.02;;;6.55;;
50932;SDS011;36921;49.006;9.292;2024-03-22T05:32:47;11.02;;;6.18;;
50932;SDS011;36921;49.006;9.292;2024-03-22T05:35:14;11.57;;;6.43;;
50932;SDS011;36921;49.006;9.292;2024-03-22T05:37:39;9.98;;;5.65;;
50932;SDS011;36921;49.006;9.292;2024-03-22T05:40:05;15.90;;;5.93;;
50932;SDS011;36921;49.006;9.292;2024-03-22T05:42:31;11.65;;;6.15;;
50932;SDS011;36921;49.006;9.292;2024-03-22T05:44:57;19.10;;;6.03;;
50932;SDS011;36921;49.006;9.292;2024-03-22T05:47:22;15.95;;;6.15;;
50932;SDS011;36921;49.006;9.292;2024-03-22T05:49:48;12.77;;;5.85;;
50932;SDS011;36921;49.006;9.292;2024-03-22T05:52:13;11.82;;;6.18;;
50932;SDS011;36921;49.006;9.292;2024-03-22T05:54:39;10.38;;;5.78;;
50932;SDS011;36921;49.006;9.292;2024-03-22T05:57:04;7.63;;;4.90;;
50932;SDS011;36921;49.006;9.292;2024-03-22T05:59:33;12.07;;;5.72;;
50932;SDS011;36921;49.006;9.292;2024-03-22T06:01:59;13.48;;;5.10;;
50932;SDS011;36921;49.006;9.292;2024-03-22T06:04:25;10.88;;;6.00;;
50932;SDS011;36921;49.006;9.292;2024-03-22T06:06:50;8.43;;;5.28;;
50932;SDS011;36921;49.006;9.292;2024-03-22T06:09:16;10.18;;;5.28;;
50932;SDS011;36921;49.006;9.292;2024-03-22T06:11:49;12.23;;;4.80;;
50932;SDS011;36921;49.006;9.292;2024-03-22T06:14:15;12.65;;;5.40;;
50932;SDS011;36921;49.006;9.292;2024-03-22T06:16:41;10.68;;;5.13;;
50932;SDS011;36921;49.006;9.292;2024-03-22T06:19:06;8.02;;;5.22;;
50932;SDS011;36921;49.006;9.292;2024-03-22T06:21:31;9.52;;;4.95;;
50932;SDS011;36921;49.006;9.292;2024-03-22T06:23:57;9.05;;;5.32;;
50932;SDS011;36921;49.006;9.292;2024-03-22T06:26:22;9.55;;;4.95;;
50932;SDS011;36921;49.006;9.292;2024-03-22T06:28:48;7.43;;;4.60;;
50932;SDS011;36921;49.006;9.292;2024-03-22T06:31:13;6.13;;;4.22;;
50932;SDS011;36921;49.006;9.292;2024-03-22T06:33:39;12.02;;;5.00;;
50932;SDS011;36921;49.006;9.292;2024-03-22T06:36:04;12.80;;;4.85;;
50932;SDS011;36921;49.006;9.292;2024-03-22T06:38:30;13.30;;;5.00;;
50932;SDS011;36921;49.006;9.292;2024-03-22T06:40:56;6.95;;;4.55;;
50932;SDS011;36921;49.006;9.292;2024-03-22T06:43:21;7.20;;;4.32;;
50932;SDS011;36921;49.006;9.292;2024-03-22T06:45:46;10.13;;;5.18;;
50932;SDS011;36921;49.006;9.292;2024-03-22T06:48:12;7.18;;;3.97;;
50932;SDS011;36921;49.006;9.292;2024-03-22T06:50:40;6.05;;;4.22;;
50932;SDS011;36921;49.006;9.292;2024-03-22T06:53:06;10.40;;;3.88;;
50932;SDS011;36921;49.006;9.292;2024-03-22T06:55:32;6.43;;;3.90;;
50932;SDS011;36921;49.006;9.292;2024-03-22T06:57:57;9.27;;;3.90;;
50932;SDS011;36921;49.006;9.292;2024-03-22T07:00:22;9.02;;;4.82;;
50932;SDS011;36921;49.006;9.292;2024-03-22T07:02:48;9.48;;;4.78;;
50932;SDS011;36921;49.006;9.292;2024-03-22T07:05:15;8.30;;;4.82;;
50932;SDS011;36921;49.006;9.292;2024-03-22T07:07:40;6.85;;;5.40;;
50932;SDS011;36921;49.006;9.292;2024-03-22T07:10:07;8.45;;;5.30;;
50932;SDS011;36921;49.006;9.292;2024-03-22T07:12:32;8.85;;;4.75;;
50932;SDS011;36921;49.006;9.292;2024-03-22T07:15:01;9.98;;;5.50;;
50932;SDS011;36921;49.006;9.292;2024-03-22T07:17:27;7.72;;;5.30;;
50932;SDS011;36921;49.006;9.292;2024-03-22T07:19:59;14.73;;;4.93;;
50932;SDS011;36921;49.006;9.292;2024-03-22T07:22:25;8.75;;;5.10;;
50932;SDS011;36921;49.006;9.292;2024-03-22T07:24:50;13.02;;;5.53;;
50932;SDS011;36921;49.006;9.292;2024-03-22T07:27:16;9.02;;;5.30;;
50932;SDS011;36921;49.006;9.292;2024-03-22T07:29:44;11.57;;;5.32;;
50932;SDS011;36921;49.006;9.292;2024-03-22T07:32:10;9.90;;;5.38;;
50932;SDS011;36921;49.006;9.292;2024-03-22T07:34:35;14.77;;;5.53;;
50932;SDS011;36921;49.006;9.292;2024-03-22T07:37:01;8.60;;;5.28;;
50932;SDS011;36921;49.006;9.292;2024-03-22T07:39:26;8.02;;;4.75;;
50932;SDS011;36921;49.006;9.292;2024-03-22T07:41:52;9.48;;;4.60;;
50932;SDS011;36921;49.006;9.292;2024-03-22T07:44:17;7.45;;;5.35;;
50932;SDS011;36921;49.006;9.292;2024-03-22T07:46:44;9.00;;;4.90;;
50932;SDS011;36921;49.006;9.292;2024-03-22T07:49:11;8.00;;;5.18;;
50932;SDS011;36921;49.006;9.292;2024-03-22T07:51:37;10.05;;;6.15;;
50932;SDS011;36921;49.006;9.292;2024-03-22T07:54:02;8.88;;;5.50;;
50932;SDS011;36921;49.006;9.292;2024-03-22T07:56:29;9.02;;;5.25;;
50932;SDS011;36921;49.006;9.292;2024-03-22T07:58:55;8.88;;;5.38;;
50932;SDS011;36921;49.006;9.292;2024-03-22T08:01:21;8.73;;;5.80;;
50932;SDS011;36921;49.006;9.292;2024-03-22T08:03:46;7.38;;;5.85;;
50932;SDS011;36921;49.006;9.292;2024-03-22T08:06:12;8.30;;;5.45;;
50932;SDS011;36921;49.006;9.292;2024-03-22T08:08:37;9.27;;;5.75;;
50932;SDS011;36921;49.006;9.292;2024-03-22T08:11:02;10.15;;;6.28;;
50932;SDS011;36921;49.006;9.292;2024-03-22T08:13:28;12.77;;;6.93;;
50932;SDS011;36921;49.006;9.292;2024-03-22T08:15:53;9.43;;;6.13;;
50932;SDS011;36921;49.006;9.292;2024-03-22T08:18:19;9.15;;;5.90;;
50932;SDS011;36921;49.006;9.292;2024-03-22T08:20:44;11.13;;;6.28;;
50932;SDS011;36921;49.006;9.292;2024-03-22T08:23:09;10.00;;;6.57;;
50932;SDS011;36921;49.006;9.292;2024-03-22T08:25:35;16.00;;;6.60;;
50932;SDS011;36921;49.006;9.292;2024-03-22T08:28:01;8.73;;;5.90;;
50932;SDS011;36921;49.006;9.292;2024-03-22T08:30:27;10.23;;;6.38;;
50932;SDS011;36921;49.006;9.292;2024-03-22T08:32:53;12.10;;;6.95;;
50932;SDS011;36921;49.006;9.292;2024-03-22T08:35:18;14.55;;;6.97;;
50932;SDS011;36921;49.006;9.292;2024-03-22T08:37:43;10.05;;;6.13;;
50932;SDS011;36921;49.006;9.292;2024-03-22T08:40:09;8.50;;;5.70;;
50932;SDS011;36921;49.006;9.292;2024-03-22T08:42:35;11.13;;;5.95;;
50932;SDS011;36921;49.006;9.292;2024-03-22T08:45:01;9.30;;;6.07;;
50932;SDS011;36921;49.006;9.292;2024-03-22T08:47:29;8.85;;;5.30;;
50932;SDS011;36921;49.006;9.292;2024-03-22T08:49:54;11.13;;;6.07;;
50932;SDS011;36921;49.006;9.292;2024-03-22T08:52:21;8.52;;;5.55;;
50932;SDS011;36921;49.006;9.292;2024-03-22T08:54:49;10.27;;;6.07;;
50932;SDS011;36921;49.006;9.292;2024-03-22T08:57:15;7.78;;;5.30;;
50932;SDS011;36921;49.006;9.292;2024-03-22T08:59:40;9.10;;;5.65;;
50932;SDS011;36921;49.006;9.292;2024-03-22T09:02:07;11.43;;;5.80;;
50932;SDS011;36921;49.006;9.292;2024-03-22T09:04:34;8.90;;;5.40;;
50932;SDS011;36921;49.006;9.292;2024-03-22T09:06:59;9.98;;;6.22;;
50932;SDS011;36921;49.006;9.292;2024-03-22T09:09:25;8.25;;;5.20;;
50932;SDS011;36921;49.006;9.292;2024-03-22T09:11:50;9.15;;;6.18;;
50932;SDS011;36921;49.006;9.292;2024-03-22T09:14:16;12.50;;;6.05;;
50932;SDS011;36921;49.006;9.292;2024-03-22T09:16:42;8.35;;;5.78;;
50932;SDS011;36921;49.006;9.292;2024-03-22T09:19:07;10.32;;;5.68;;
50932;SDS011;36921;49.006;9.292;2024-03-22T09:21:33;10.48;;;5.57;;
50932;SDS011;36921;49.006;9.292;2024-03-22T09:23:58;8.27;;;5.35;;
50932;SDS011;36921;49.006;9.292;2024-03-22T09:26:24;7.18;;;5.15;;
50932;SDS011;36921;49.006;9.292;2024-03-22T09:28:50;10.55;;;5.50;;
50932;SDS011;36921;49.006;9.292;2024-03-22T09:31:15;9.63;;;5.47;;
50932;SDS011;36921;49.006;9.292;2024-03-22T09:33:42;8.88;;;5.90;;
50932;SDS011;36921;49.006;9.292;2024-03-22T09:36:08;9.18;;;5.32;;
50932;SDS011;36921;49.006;9.292;2024-03-22T09:38:34;9.32;;;5.43;;
50932;SDS011;36921;49.006;9.292;2024-03-22T09:40:59;11.50;;;5.65;;
50932;SDS011;36921;49.006;9.292;2024-03-22T09:43:27;9.50;;;6.20;;
50932;SDS011;36921;49.006;9.292;2024-03-22T09:45:54;8.33;;;4.90;;
50932;SDS011;36921;49.006;9.292;2024-03-22T09:48:20;8.93;;;5.60;;
50932;SDS011;36921;49.006;9.292;2024-03-22T09:50:49;9.57;;;5.60;;
50932;SDS011;36921;49.006;9.292;2024-03-22T09:53:17;10.55;;;5.55;;
50932;SDS011;36921;49.006;9.292;2024-03-22T09:55:46;10.63;;;5.80;;
50932;SDS011;36921;49.006;9.292;2024-03-22T09:58:12;9.43;;;5.28;;
50932;SDS011;36921;49.006;9.292;2024-03-22T10:00:38;11.57;;;5.93;;
50932;SDS011;36921;49.006;9.292;2024-03-22T10:03:04;9.23;;;5.53;;
50932;SDS011;36921;49.006;9.292;2024-03-22T10:05:30;12.30;;;5.25;;
50932;SDS011;36921;49.006;9.292;2024-03-22T10:07:56;9.27;;;5.50;;
50932;SDS011;36921;49.006;9.292;2024-03-22T10:10:22;9.80;;;5.60;;
50932;SDS011;36921;49.006;9.292;2024-03-22T10:12:48;9.40;;;5.50;;
50932;SDS011;36921;49.006;9.292;2024-03-22T10:15:13;11.02;;;5.90;;
50932;SDS011;36921;49.006;9.292;2024-03-22T10:17:39;8.30;;;5.88;;
50932;SDS011;36921;49.006;9.292;2024-03-22T10:20:06;12.25;;;6.00;;
50932;SDS011;36921;49.006;9.292;2024-03-22T10:22:41;9.38;;;5.25;;
50932;SDS011;36921;49.006;9.292;2024-03-22T10:25:13;8.35;;;5.20;;
50932;SDS011;36921;49.006;9.292;2024-03-22T10:27:39;12.20;;;5.22;;
50932;SDS011;36921;49.006;9.292;2024-03-22T10:30:07;7.93;;;4.97;;
50932;SDS011;36921;49.006;9.292;2024-03-22T10:32:37;9.68;;;5.03;;
50932;SDS011;36921;49.006;9.292;2024-03-22T10:35:03;7.95;;;5.28;;
50932;SDS011;36921;49.006;9.292;2024-03-22T10:37:32;8.00;;;5.65;;
50932;SDS011;36921;49.006;9.292;2024-03-22T10:40:00;8.93;;;5.07;;
50932;SDS011;36921;49.006;9.292;2024-03-22T10:42:32;7.30;;;5.00;;
50932;SDS011;36921;49.006;9.292;2024-03-22T10:44:58;6.93;;;4.63;;
50932;SDS011;36921;49.006;9.292;2024-03-22T10:47:23;9.75;;;5.10;;
50932;SDS011;36921;49.006;9.292;2024-03-22T10:49:54;11.23;;;5.22;;
50932;SDS011;36921;49.006;9.292;2024-03-22T10:52:31;10.40;;;4.70;;
50932;SDS011;36921;49.006;9.292;2024-03-22T10:55:07;4.78;;;3.47;;
50932;SDS011;36921;49.006;9.292;2024-03-22T10:57:37;5.95;;;4.35;;
50932;SDS011;36921;49.006;9.292;2024-03-22T11:00:12;10.40;;;4.05;;
50932;SDS011;36921;49.006;9.292;2024-03-22T11:02:42;9.75;;;4.82;;
50932;SDS011;36921;49.006;9.292;2024-03-22T11:05:15;9.50;;;4.10;;
50932;SDS011;36921;49.006;9.292;2024-03-22T11:07:43;7.50;;;3.95;;
50932;SDS011;36921;49.006;9.292;2024-03-22T11:10:09;5.07;;;4.00;;
50932;SDS011;36921;49.006;9.292;2024-03-22T11:12:37;4.70;;;3.47;;
50932;SDS011;36921;49.006;9.292;2024-03-22T11:15:03;6.70;;;3.67;;
50932;SDS011;36921;49.006;9.292;2024-03-22T11:17:28;6.45;;;3.63;;
50932;SDS011;36921;49.006;9.292;2024-03-22T11:19:54;5.10;;;3.00;;
50932;SDS011;36921;49.006;9.292;2024-03-22T11:22:19;5.07;;;2.50;;
50932;SDS011;36921;49.006;9.292;2024-03-22T11:24:45;6.40;;;3.33;;
50932;SDS011;36921;49.006;9.292;2024-03-22T11:27:10;4.63;;;2.90;;
50932;SDS011;36921;49.006;9.292;2024-03-22T11:29:37;5.50;;;2.70;;
50932;SDS011;36921;49.006;9.292;2024-03-22T11:32:07;6.50;;;3.22;;
50932;SDS011;36921;49.006;9.292;2024-03-22T11:34:39;6.10;;;2.83;;
50932;SDS011;36921;49.006;9.292;2024-03-22T11:37:06;5.25;;;2.80;;
50932;SDS011;36921;49.006;9.292;2024-03-22T11:39:38;5.97;;;2.60;;
50932;SDS011;36921;49.006;9.292;2024-03-22T11:42:05;3.22;;;2.42;;
50932;SDS011;36921;49.006;9.292;2024-03-22T11:44:34;8.13;;;3.00;;
50932;SDS011;36921;49.006;9.292;2024-03-22T11:47:03;5.05;;;3.20;;
50932;SDS011;36921;49.006;9.292;2024-03-22T11:49:29;3.95;;;3.10;;
50932;SDS011;36921;49.006;9.292;2024-03-22T11:51:58;3.80;;;2.65;;
50932;SDS011;36921;49.006;9.292;2024-03-22T11:54:23;5.45;;;3.10;;
50932;SDS011;36921;49.006;9.292;2024-03-22T11:56:49;5.40;;;2.63;;
50932;SDS011;36921;49.006;9.292;2024-03-22T11:59:15;6.07;;;3.20;;
50932;SDS011;36921;49.006;9.292;2024-03-22T12:01:44;5.57;;;2.92;;
50932;SDS011;36921;49.006;9.292;2024-03-22T12:04:09;4.57;;;2.83;;
50932;SDS011;36921;49.006;9.292;2024-03-22T12:06:40;5.05;;;2.50;;
50932;SDS011;36921;49.006;9.292;2024-03-22T12:09:07;4.70;;;2.83;;
50932;SDS011;36921;49.006;9.292;2024-03-22T12:11:33;3.97;;;2.25;;
50932;SDS011;36921;49.006;9.292;2024-03-22T12:13:59;7.60;;;2.08;;
50932;SDS011;36921;49.006;9.292;2024-03-22T12:16:24;4.53;;;2.20;;
50932;SDS011;36921;49.006;9.292;2024-03-22T12:18:50;5.63;;;1.98;;
50932;SDS011;36921;49.006;9.292;2024-03-22T12:21:16;2.97;;;1.60;;
50932;SDS011;36921;49.006;9.292;2024-03-22T12:23:54;5.25;;;2.10;;
50932;SDS011;36921;49.006;9.292;2024-03-22T12:26:19;3.58;;;1.70;;
50932;SDS011;36921;49.006;9.292;2024-03-22T12:28:45;2.63;;;1.63;;
50932;SDS011;36921;49.006;9.292;2024-03-22T12:31:10;3.55;;;1.77;;
50932;SDS011;36921;49.006;9.292;2024-03-22T12:33:36;5.50;;;1.75;;
50932;SDS011;36921;49.006;9.292;2024-03-22T12:36:01;5.97;;;1.90;;
50932;SDS011;36921;49.006;9.292;2024-03-22T12:38:27;4.63;;;1.65;;
50932;SDS011;36921;49.006;9.292;2024-03-22T12:40:53;2.80;;;1.60;;
50932;SDS011;36921;49.006;9.292;2024-03-22T12:43:19;5.28;;;1.58;;
50932;SDS011;36921;49.006;9.292;2024-03-22T12:45:44;5.63;;;2.20;;
50932;SDS011;36921;49.006;9.292;2024-03-22T12:48:10;3.90;;;2.28;;
50932;SDS011;36921;49.006;9.292;2024-03-22T12:50:35;3.22;;;2.33;;
50932;SDS011;36921;49.006;9.292;2024-03-22T12:53:00;3.88;;;2.20;;
50932;SDS011;36921;49.006;9.292;2024-03-22T12:55:26;5.15;;;2.53;;
50932;SDS011;36921;49.006;9.292;2024-03-22T12:57:53;5.05;;;2.20;;
50932;SDS011;36921;49.006;9.292;2024-03-22T13:00:19;4.60;;;1.90;;
50932;SDS011;36921;49.006;9.292;2024-03-22T13:02:44;3.75;;;2.15;;
50932;SDS011;36921;49.006;9.292;2024-03-22T13:05:10;4.28;;;2.45;;
50932;SDS011;36921;49.006;9.292;2024-03-22T13:07:36;4.28;;;2.10;;
50932;SDS011;36921;49.006;9.292;2024-03-22T13:10:02;6.57;;;2.00;;
50932;SDS011;36921;49.006;9.292;2024-03-22T13:12:28;4.22;;;2.35;;
50932;SDS011;36921;49.006;9.292;2024-03-22T13:14:56;3.63;;;2.05;;
50932;SDS011;36921;49.006;9.292;2024-03-22T13:17:21;4.82;;;1.92;;
50932;SDS011;36921;49.006;9.292;2024-03-22T13:19:47;6.35;;;2.17;;
50932;SDS011;36921;49.006;9.292;2024-03-22T13:22:13;6.82;;;2.22;;
50932;SDS011;36921;49.006;9.292;2024-03-22T13:24:40;5.32;;;2.10;;
50932;SDS011;36921;49.006;9.292;2024-03-22T13:27:05;6.38;;;2.17;;
50932;SDS011;36921;49.006;9.292;2024-03-22T13:29:30;6.20;;;2.63;;
50932;SDS011;36921;49.006;9.292;2024-03-22T13:31:56;2.90;;;2.08;;
50932;SDS011;36921;49.006;9.292;2024-03-22T13:34:22;7.57;;;2.30;;
50932;SDS011;36921;49.006;9.292;2024-03-22T13:36:47;4.32;;;1.90;;
50932;SDS011;36921;49.006;9.292;2024-03-22T13:39:13;3.53;;;1.65;;
50932;SDS011;36921;49.006;9.292;2024-03-22T13:41:41;4.80;;;2.22;;
50932;SDS011;36921;49.006;9.292;2024-03-22T13:44:06;4.82;;;2.20;;
50932;SDS011;36921;49.006;9.292;2024-03-22T13:46:33;6.63;;;2.38;;
50932;SDS011;36921;49.006;9.292;2024-03-22T13:49:01;2.72;;;1.50;;
50932;SDS011;36921;49.006;9.292;2024-03-22T13:51:29;5.78;;;2.05;;
50932;SDS011;36921;49.006;9.292;2024-03-22T13:53:56;4.38;;;1.70;;
50932;SDS011;36921;49.006;9.292;2024-03-22T13:56:22;3.50;;;1.45;;
50932;SDS011;36921;49.006;9.292;2024-03-22T13:58:47;4.45;;;1.63;;
50932;SDS011;36921;49.006;9.292;2024-03-22T14:01:14;5.50;;;1.60;;
50932;SDS011;36921;49.006;9.292;2024-03-22T14:03:40;2.58;;;1.27;;
50932;SDS011;36921;49.006;9.292;2024-03-22T14:06:05;4.68;;;1.30;;
50932;SDS011;36921;49.006;9.292;2024-03-22T14:08:31;3.20;;;1.38;;
50932;SDS011;36921;49.006;9.292;2024-03-22T14:10:57;3.40;;;1.60;;
50932;SDS011;36921;49.006;9.292;2024-03-22T14:13:22;6.32;;;1.70;;
50932;SDS011;36921;49.006;9.292;2024-03-22T14:15:48;2.28;;;1.30;;
50932;SDS011;36921;49.006;9.292;2024-03-22T14:18:13;2.33;;;1.23;;
50932;SDS011;36921;49.006;9.292;2024-03-22T14:20:39;6.30;;;1.50;;
50932;SDS011;36921;49.006;9.292;2024-03-22T14:23:04;2.47;;;1.20;;
50932;SDS011;36921;49.006;9.292;2024-03-22T14:25:32;2.67;;;1.40;;
50932;SDS011;36921;49.006;9.292;2024-03-22T14:27:57;4.57;;;1.23;;
50932;SDS011;36921;49.006;9.292;2024-03-22T14:30:23;2.38;;;1.02;;
50932;SDS011;36921;49.006;9.292;2024-03-22T14:32:50;2.60;;;1.00;;
50932;SDS011;36921;49.006;9.292;2024-03-22T14:35:15;4.75;;;1.23;;
50932;SDS011;36921;49.006;9.292;2024-03-22T14:37:41;3.08;;;1.60;;
50932;SDS011;36921;49.006;9.292;2024-03-22T14:40:06;1.75;;;1.05;;
50932;SDS011;36921;49.006;9.292;2024-03-22T14:42:35;1.63;;;0.98;;